Time;durP1;ratioP1;P1;durP2;ratioP2;P2;SDS_P1;SDS_P2;PMS_P1;PMS_P2;Temp;Humidity;BMP_temperature;BMP_pressure;BME280_temperature;BME280_humidity;BME280_pressure;Samples;Min_cycle;Max_cycle;Signal;HPM_P1;HPM_P2
2023/04/02 00:01:33;;;;;;;;;6.50;4.00;;;;;10.95;68.82;100533.06;5101113;27;46027;-91
2023/04/02 00:04:07;;;;;;;;;2.25;2.25;;;;;11.24;68.33;100585.94;5099216;27;45829;-90
2023/04/02 00:06:39;;;;;;;;;4.25;3.75;;;;;11.16;68.77;100586.53;5101786;27;45719;-91
2023/04/02 00:09:13;;;;;;;;;3.50;3.25;;;;;11.22;68.05;100596.56;5100697;27;45815;-92
2023/04/02 00:11:53;;;;;;;;;7.50;4.00;;;;;11.11;68.57;100588.66;5101179;27;45495;-88
2023/04/02 00:14:30;;;;;;;;;5.50;5.00;;;;;11.20;68.25;100598.47;5101774;27;45941;-88
2023/04/02 00:16:58;;;;;;;;;5.75;4.25;;;;;11.19;68.15;100617.75;5102206;27;45717;-90
2023/04/02 00:19:55;;;;;;;;;3.25;3.25;;;;;11.21;68.51;100599.31;5119505;27;45660;-85
2023/04/02 00:22:26;;;;;;;;;6.50;4.25;;;;;11.10;67.47;100591.38;5102060;27;47241;-91
2023/04/02 00:24:54;;;;;;;;;5.50;3.75;;;;;11.17;68.80;100605.72;5105058;27;45872;-86
2023/04/02 00:27:20;;;;;;;;;4.75;2.50;;;;;11.20;68.73;100602.88;5102359;27;45937;-83
2023/04/02 00:29:48;;;;;;;;;5.50;3.25;;;;;11.19;68.62;100582.84;5098163;27;45606;-80
2023/04/02 00:32:23;;;;;;;;;3.25;3.00;;;;;11.28;68.71;100600.53;5099860;27;45677;-82
2023/04/02 00:34:49;;;;;;;;;4.00;3.75;;;;;11.29;68.04;100617.91;5108277;27;45745;-88
2023/04/02 00:37:22;;;;;;;;;6.50;4.00;;;;;11.22;67.43;100612.31;5116216;27;45489;-85
2023/04/02 00:39:50;;;;;;;;;6.75;4.50;;;;;11.19;68.06;100609.91;5120366;27;45753;-82
2023/04/02 00:42:17;;;;;;;;;3.75;3.00;;;;;11.07;67.63;100599.47;5119032;27;47441;-84
2023/04/02 00:44:44;;;;;;;;;0.00;0.00;;;;;10.80;67.59;100561.22;5113075;27;45768;-85
2023/04/02 00:47:20;;;;;;;;;4.50;4.00;;;;;11.10;67.88;100610.59;5105434;27;45711;-79
2023/04/02 00:49:50;;;;;;;;;7.25;3.50;;;;;11.13;67.64;100617.38;5100668;27;47238;-77
2023/04/02 00:52:21;;;;;;;;;6.25;4.00;;;;;11.10;67.55;100617.59;5096736;27;48548;-78
2023/04/02 00:54:51;;;;;;;;;4.00;3.00;;;;;11.09;68.02;100624.63;5097427;27;45733;-82
2023/04/02 00:57:24;;;;;;;;;4.50;3.50;;;;;11.03;68.39;100591.00;5098172;27;45643;-90
2023/04/02 01:00:02;;;;;;;;;3.75;3.50;;;;;11.12;68.16;100634.06;5100406;27;45681;-88
2023/04/02 01:02:31;;;;;;;;;4.00;3.25;;;;;11.08;67.83;100620.34;5097736;27;45660;-85
2023/04/02 01:05:16;;;;;;;;;6.00;4.25;;;;;11.02;68.39;100612.06;5097803;27;45909;-85
2023/04/02 01:07:53;;;;;;;;;7.25;5.75;;;;;11.11;68.37;100627.16;5096510;27;45604;-86
2023/04/02 01:10:27;;;;;;;;;2.00;2.00;;;;;11.10;68.44;100639.41;5100689;27;45682;-88
2023/04/02 01:13:08;;;;;;;;;4.00;3.00;;;;;10.71;68.68;100579.41;5103525;27;46349;-83
2023/04/02 01:15:42;;;;;;;;;3.50;3.00;;;;;11.01;69.08;100647.97;5098835;27;45610;-83
2023/04/02 01:18:30;;;;;;;;;3.00;3.00;;;;;10.96;69.55;100625.66;5099349;27;45550;-83
2023/04/02 01:21:03;;;;;;;;;2.75;2.75;;;;;10.97;69.54;100637.78;5097521;27;46506;-86
2023/04/02 01:24:06;;;;;;;;;2.50;2.50;;;;;10.90;69.41;100646.09;5095224;27;48480;-83
2023/04/02 01:26:53;;;;;;;;;2.00;2.00;;;;;10.89;69.84;100641.81;5086114;27;45839;-85
2023/04/02 01:29:22;;;;;;;;;1.00;1.00;;;;;10.84;69.84;100646.56;5097509;27;45755;-84
2023/04/02 01:31:51;;;;;;;;;6.00;3.25;;;;;10.87;69.91;100641.06;5096317;27;45573;-83
2023/04/02 01:34:20;;;;;;;;;4.00;2.50;;;;;10.84;69.91;100649.19;5096895;27;46277;-87
2023/04/02 01:36:48;;;;;;;;;1.00;0.75;;;;;10.84;69.83;100654.41;5098978;27;45655;-87
2023/04/02 01:39:38;;;;;;;;;3.00;2.00;;;;;10.86;70.06;100642.03;5097627;27;45584;-87
2023/04/02 01:42:27;;;;;;;;;5.00;3.25;;;;;10.87;69.76;100648.94;5097075;27;45677;-85
2023/04/02 01:45:00;;;;;;;;;1.75;1.75;;;;;10.87;69.88;100656.81;5079123;27;47180;-84
2023/04/02 01:47:27;;;;;;;;;2.50;2.25;;;;;10.89;69.90;100670.66;5095960;27;45594;-87
2023/04/02 01:50:01;;;;;;;;;2.75;2.00;;;;;10.84;70.00;100661.44;5096869;27;45600;-86
2023/04/02 01:56:16;;;;;;;;;1.00;1.00;;;;;10.77;69.86;100658.41;5096457;27;46068;-80
2023/04/02 01:58:41;;;;;;;;;2.00;1.25;;;;;10.65;69.67;100674.16;5095757;27;45763;-83
2023/04/02 02:01:15;;;;;;;;;1.00;1.00;;;;;10.67;70.26;100672.28;5096177;27;45608;-85
2023/04/02 02:03:42;;;;;;;;;1.00;1.00;;;;;10.62;70.13;100653.41;5094445;27;47735;-83
2023/04/02 02:06:11;;;;;;;;;3.50;2.00;;;;;10.44;70.04;100629.34;5095789;27;45596;-82
2023/04/02 02:12:14;;;;;;;;;1.75;1.25;;;;;10.56;70.55;100670.41;5095187;27;45731;-83
2023/04/02 02:14:46;;;;;;;;;2.00;1.50;;;;;10.58;70.34;100658.00;5095631;27;46690;-86
2023/04/02 02:17:16;;;;;;;;;2.25;1.25;;;;;10.62;70.64;100662.13;5096460;27;46080;-84
2023/04/02 02:19:46;;;;;;;;;3.00;2.00;;;;;10.62;70.20;100677.84;5097011;27;45492;-85
2023/04/02 02:22:26;;;;;;;;;1.00;1.00;;;;;10.57;70.78;100677.31;5096238;27;45584;-86
2023/04/02 02:28:27;;;;;;;;;1.25;1.00;;;;;10.26;72.33;100677.75;5095582;27;45850;-82
2023/04/02 02:31:00;;;;;;;;;1.00;1.00;;;;;10.31;72.70;100697.44;5093577;27;46030;-85
2023/04/02 02:33:31;;;;;;;;;1.00;1.00;;;;;10.03;72.82;100655.75;5093636;27;45672;-85
2023/04/02 02:36:01;;;;;;;;;1.75;1.75;;;;;10.29;73.11;100707.19;5095863;27;46897;-84
2023/04/02 02:38:33;;;;;;;;;1.25;1.00;;;;;10.30;73.41;100693.16;5095526;27;46272;-84
2023/04/02 02:41:06;;;;;;;;;1.00;1.00;;;;;10.11;73.59;100675.22;5097093;27;45739;-86
2023/04/02 02:43:34;;;;;;;;;2.00;1.25;;;;;10.24;73.71;100696.19;5078814;27;45653;-83
2023/04/02 02:46:04;;;;;;;;;5.00;2.00;;;;;10.11;74.21;100674.38;5095542;27;45706;-82
2023/04/02 02:48:39;;;;;;;;;1.25;1.00;;;;;10.27;73.95;100703.84;5096075;27;45631;-81
2023/04/02 02:51:09;;;;;;;;;0.25;0.25;;;;;10.13;73.90;100697.84;5097035;27;45687;-80
2023/04/02 02:53:46;;;;;;;;;1.00;1.00;;;;;10.21;74.01;100713.88;5100878;27;45428;-80
2023/04/02 02:56:12;;;;;;;;;1.50;1.00;;;;;10.21;74.40;100719.13;5101408;27;45657;-81
2023/04/02 02:58:38;;;;;;;;;1.00;1.00;;;;;10.18;74.78;100725.41;5097668;27;45967;-78
2023/04/02 03:01:04;;;;;;;;;0.00;0.00;;;;;10.17;74.78;100721.13;5094370;27;45568;-78
2023/04/02 03:03:32;;;;;;;;;0.50;0.00;;;;;10.19;74.86;100724.47;5094288;27;45716;-83
2023/04/02 03:06:12;;;;;;;;;1.25;1.00;;;;;10.06;74.98;100713.94;5093391;27;45709;-80
2023/04/02 03:09:06;;;;;;;;;0.25;0.25;;;;;10.20;74.94;100722.69;5093386;27;46033;-83
2023/04/02 03:12:09;;;;;;;;;1.25;1.00;;;;;10.22;74.95;100741.75;5096913;27;45488;-82
2023/04/02 03:14:41;;;;;;;;;0.50;0.50;;;;;10.16;75.04;100719.44;5097828;27;45527;-80
2023/04/02 03:17:12;;;;;;;;;1.00;0.00;;;;;10.11;74.61;100724.09;5097965;27;46727;-78
2023/04/02 03:19:46;;;;;;;;;1.00;1.00;;;;;10.12;75.23;100744.13;5098767;27;45624;-79
2023/04/02 03:22:30;;;;;;;;;1.00;0.75;;;;;10.09;74.95;100746.94;5108375;27;45506;-77
2023/04/02 03:25:15;;;;;;;;;0.00;0.00;;;;;10.04;74.90;100743.81;5106916;27;45720;-80
2023/04/02 03:27:45;;;;;;;;;1.00;1.00;;;;;9.97;74.88;100740.75;5100018;27;46421;-82
2023/04/02 03:30:53;;;;;;;;;1.00;1.00;;;;;9.97;75.48;100748.59;5096659;27;46338;-80
2023/04/02 03:33:28;;;;;;;;;0.25;0.25;;;;;9.97;75.45;100756.44;5033818;28;45734;-81
2023/04/02 03:36:15;;;;;;;;;0.00;0.00;;;;;9.93;75.27;100794.22;5033367;28;45780;-81
2023/04/02 03:41:48;;;;;;;;;1.50;1.00;;;;;9.94;74.85;100771.50;5034368;28;45843;-83
2023/04/02 03:44:25;;;;;;;;;1.00;0.00;;;;;9.64;74.55;100715.03;5034853;28;45788;-84
2023/04/02 03:46:56;;;;;;;;;1.00;1.00;;;;;9.99;74.57;100780.72;5034893;28;45774;-85
2023/04/02 03:49:32;;;;;;;;;0.50;0.50;;;;;9.81;74.17;100747.94;5034034;28;46671;-82
2023/04/02 03:52:13;;;;;;;;;1.25;0.50;;;;;9.98;74.11;100765.16;5034885;28;46157;-82
2023/04/02 03:58:05;;;;;;;;;3.00;2.25;;;;;9.98;73.76;100783.47;5034503;28;45758;-80
2023/04/02 04:00:37;;;;;;;;;3.50;2.50;;;;;9.99;73.88;100792.97;5033879;28;46017;-81
2023/04/02 04:03:13;;;;;;;;;4.25;3.50;;;;;9.97;73.84;100805.34;5017217;28;47952;-81
2023/04/02 04:05:48;;;;;;;;;5.00;3.25;;;;;9.70;73.78;100800.13;5034385;28;45887;-80
2023/04/02 04:08:19;;;;;;;;;4.00;3.00;;;;;9.96;73.20;100824.59;5093350;27;45711;-83
2023/04/02 04:14:37;;;;;;;;;5.00;5.00;;;;;9.84;73.42;100823.59;5095938;27;46198;-85
2023/04/02 04:17:08;;;;;;;;;6.00;5.00;;;;;9.81;73.59;100834.28;5097202;27;45537;-82
2023/04/02 04:20:06;;;;;;;;;0.50;0.00;;;;;9.81;73.59;100834.28;5097576;27;45610;-82
2023/04/02 04:22:32;;;;;;;;;2.25;1.00;;;;;9.79;73.26;100811.75;5094408;27;47639;-82
2023/04/02 04:25:04;;;;;;;;;6.25;5.75;;;;;9.75;73.53;100839.91;5095461;27;45989;-82
2023/04/02 04:27:45;;;;;;;;;7.50;6.00;;;;;9.76;73.22;100830.28;5095668;27;45585;-83
2023/04/02 04:30:33;;;;;;;;;6.75;5.50;;;;;9.73;73.42;100825.22;5096245;27;45787;-81
2023/04/02 04:33:14;;;;;;;;;7.00;5.75;;;;;9.67;73.31;100847.38;5095682;27;45663;-80
2023/04/02 04:35:47;;;;;;;;;9.75;6.75;;;;;9.59;73.59;100807.81;5095810;27;45494;-83
2023/04/02 04:38:26;;;;;;;;;5.25;4.50;;;;;9.54;73.45;100829.03;5094596;27;45759;-81
2023/04/02 04:40:55;;;;;;;;;7.00;7.00;;;;;9.49;73.95;100801.50;5095708;27;45622;-80
2023/04/02 04:43:54;;;;;;;;;9.00;7.25;;;;;9.64;73.68;100832.75;5095944;27;45645;-81
2023/04/02 04:46:30;;;;;;;;;6.75;6.50;;;;;9.37;73.85;100794.41;5073565;27;47142;-87
2023/04/02 04:49:14;;;;;;;;;8.75;7.00;;;;;9.72;73.95;100853.16;5096931;27;45612;-81
2023/04/02 04:51:52;;;;;;;;;7.00;6.00;;;;;9.72;73.48;100855.78;5097058;27;45785;-82
2023/04/02 04:54:18;;;;;;;;;11.00;6.50;;;;;9.70;73.79;100857.66;5097460;27;45678;-79
2023/04/02 04:56:48;;;;;;;;;8.50;7.00;;;;;9.30;73.59;100795.72;5096508;27;46246;-82
2023/04/02 04:59:20;;;;;;;;;10.00;9.00;;;;;9.74;73.92;100853.91;5096729;27;45480;-86
2023/04/02 05:01:56;;;;;;;;;10.25;7.75;;;;;9.77;73.98;100853.72;5096748;27;45656;-78
2023/04/02 05:04:29;;;;;;;;;7.50;6.75;;;;;9.81;73.83;100859.59;5097425;27;46446;-77
2023/04/02 05:07:10;;;;;;;;;8.50;7.50;;;;;9.82;73.89;100877.00;5100583;27;46126;-79
2023/04/02 05:12:54;;;;;;;;;16.00;11.00;;;;;9.84;73.57;100875.09;5096658;27;45744;-80
2023/04/02 05:15:26;;;;;;;;;15.50;11.00;;;;;9.82;73.12;100887.44;5097790;27;46528;-82
2023/04/02 05:18:16;;;;;;;;;7.75;3.75;;;;;9.78;73.09;100896.41;5100566;27;46087;-83
2023/04/02 05:21:02;;;;;;;;;11.00;9.75;;;;;9.68;73.06;100894.38;5099766;27;45462;-80
2023/04/02 05:23:46;;;;;;;;;10.00;8.25;;;;;9.69;73.06;100924.84;5097787;27;45683;-82
2023/04/02 05:29:38;;;;;;;;;8.00;7.75;;;;;9.62;73.43;100897.38;5096808;27;46157;-82
2023/04/02 05:32:12;;;;;;;;;10.00;10.00;;;;;9.61;73.67;100916.63;5102278;27;45579;-84
2023/04/02 05:34:41;;;;;;;;;11.00;10.00;;;;;9.52;73.64;100890.19;5100109;27;45525;-85
2023/04/02 05:37:18;;;;;;;;;11.25;9.50;;;;;9.59;73.12;100909.81;5097483;27;45504;-81
2023/04/02 05:39:45;;;;;;;;;13.25;11.00;;;;;9.57;73.05;100909.91;5097426;27;46152;-87
2023/04/02 05:45:38;;;;;;;;;10.75;7.50;;;;;9.63;73.17;100953.16;5098798;27;45580;-83
2023/04/02 05:48:16;;;;;;;;;14.75;10.75;;;;;9.44;73.09;100901.16;5097594;27;45617;-83
2023/04/02 05:50:46;;;;;;;;;11.00;10.00;;;;;9.60;73.38;100966.44;5097147;27;46997;-86
2023/04/02 05:53:23;;;;;;;;;11.50;9.00;;;;;9.58;73.41;100931.69;5095692;27;45479;-85
2023/04/02 05:56:13;;;;;;;;;9.00;8.00;;;;;9.60;73.48;100953.34;5096309;27;45538;-87
2023/04/02 05:59:03;;;;;;;;;11.50;10.75;;;;;9.59;73.52;100946.44;5095873;27;46375;-81
2023/04/02 06:01:32;;;;;;;;;10.00;8.25;;;;;9.51;74.24;100952.13;5098722;27;46132;-82
2023/04/02 06:04:30;;;;;;;;;11.75;10.75;;;;;9.51;74.68;100941.66;5103229;27;45741;-82
2023/04/02 06:07:02;;;;;;;;;7.50;6.25;;;;;9.38;74.51;100932.06;5100717;27;45427;-84
2023/04/02 06:09:37;;;;;;;;;1.00;0.00;;;;;9.27;74.58;100923.09;5102307;27;45656;-91
2023/04/02 06:12:20;;;;;;;;;10.50;8.50;;;;;9.48;74.56;100951.47;5102226;27;46307;-86
2023/04/02 06:14:46;;;;;;;;;10.50;8.50;;;;;9.44;74.56;100953.47;5101113;27;45753;-89
2023/04/02 06:17:17;;;;;;;;;8.25;7.00;;;;;9.30;74.78;100947.34;5094413;27;45667;-76
2023/04/02 06:19:44;;;;;;;;;7.75;5.25;;;;;9.36;74.89;100947.00;5093981;27;46458;-76
2023/04/02 06:22:37;;;;;;;;;10.00;8.00;;;;;9.49;74.21;100955.78;5093963;27;46347;-75
2023/04/02 06:25:17;;;;;;;;;8.00;7.00;;;;;9.25;74.18;100918.88;5093812;27;45528;-76
2023/04/02 06:27:45;;;;;;;;;6.75;5.75;;;;;9.23;74.37;100926.00;5093970;27;45605;-77
2023/04/02 06:30:20;;;;;;;;;11.00;7.75;;;;;9.47;74.10;100970.72;5093863;27;45561;-74
2023/04/02 06:32:45;;;;;;;;;7.75;7.25;;;;;9.48;74.34;100980.25;5093917;27;45670;-74
2023/04/02 06:35:12;;;;;;;;;7.00;6.00;;;;;9.43;74.28;100979.69;5093637;27;45686;-74
2023/04/02 06:37:41;;;;;;;;;6.25;6.25;;;;;9.33;74.29;100942.81;5093378;27;45521;-74
2023/04/02 06:40:32;;;;;;;;;10.25;7.50;;;;;9.54;74.10;100992.97;5093981;27;46562;-76
2023/04/02 06:43:05;;;;;;;;;7.75;7.25;;;;;9.56;74.15;100985.84;5093426;27;46384;-80
2023/04/02 06:45:40;;;;;;;;;7.75;7.75;;;;;9.47;74.02;100975.94;5095537;27;45804;-81
2023/04/02 06:48:16;;;;;;;;;8.25;6.00;;;;;9.44;73.99;100965.69;5097641;27;45473;-79
2023/04/02 06:50:59;;;;;;;;;7.00;7.00;;;;;9.52;74.08;100966.88;5097117;27;46382;-79
2023/04/02 06:53:31;;;;;;;;;6.50;6.00;;;;;9.62;73.63;101001.16;5096139;27;47222;-79
2023/04/02 06:56:09;;;;;;;;;10.00;7.00;;;;;9.61;73.97;100991.63;5096123;27;45781;-77
2023/04/02 06:58:35;;;;;;;;;6.00;5.75;;;;;9.60;73.96;100990.81;5097533;27;45691;-78
2023/04/02 07:01:00;;;;;;;;;7.00;7.00;;;;;9.62;73.79;101014.25;5095430;27;46330;-77
2023/04/02 07:03:29;;;;;;;;;6.00;6.00;;;;;9.60;73.81;100990.81;5096714;27;46087;-78
2023/04/02 07:05:55;;;;;;;;;8.75;6.50;;;;;9.44;73.84;100997.91;5097032;27;45494;-77
2023/04/02 07:08:22;;;;;;;;;7.75;7.00;;;;;9.60;73.53;101001.28;5097656;27;45593;-77
2023/04/02 07:10:47;;;;;;;;;6.75;6.75;;;;;9.60;73.86;101013.53;5097339;27;46479;-77
2023/04/02 07:13:19;;;;;;;;;10.75;9.75;;;;;9.70;73.92;101043.41;5096714;27;45826;-75
2023/04/02 07:15:47;;;;;;;;;9.75;6.25;;;;;9.56;73.40;101023.31;5096715;27;45530;-77
2023/04/02 07:18:24;;;;;;;;;7.50;6.75;;;;;9.68;73.23;101059.19;5096981;27;45515;-76
2023/04/02 07:20:50;;;;;;;;;8.25;7.00;;;;;9.68;73.80;101047.88;5096635;27;46644;-78
2023/04/02 07:23:15;;;;;;;;;8.50;7.25;;;;;9.67;73.67;101031.34;5097340;27;45674;-80
2023/04/02 07:25:41;;;;;;;;;8.50;6.00;;;;;9.65;73.82;101043.69;5103363;27;45429;-82
2023/04/02 07:28:06;;;;;;;;;12.75;7.75;;;;;9.71;73.28;101060.81;5098791;27;45710;-76
2023/04/02 07:30:31;;;;;;;;;11.50;10.25;;;;;9.74;73.57;101046.69;5096441;27;46560;-76
2023/04/02 07:32:57;;;;;;;;;10.00;10.00;;;;;9.74;73.50;101055.38;5096776;27;45592;-75
2023/04/02 07:35:22;;;;;;;;;8.00;7.50;;;;;9.74;73.24;101052.75;5096006;27;45678;-75
2023/04/02 07:37:48;;;;;;;;;9.75;7.00;;;;;9.65;73.51;101051.56;5095746;27;45740;-75
2023/04/02 07:40:20;;;;;;;;;10.50;8.00;;;;;9.73;73.24;101055.47;5096349;27;46215;-74
2023/04/02 07:42:46;;;;;;;;;11.00;7.00;;;;;9.79;73.45;101070.78;5095418;27;46235;-74
2023/04/02 07:45:12;;;;;;;;;8.25;7.25;;;;;9.76;73.39;101053.50;5095328;27;46017;-75
2023/04/02 07:47:39;;;;;;;;;12.25;11.00;;;;;9.81;73.16;101072.41;5094359;27;45658;-75
2023/04/02 07:50:07;;;;;;;;;11.50;10.00;;;;;9.86;73.15;101088.66;5096060;27;46607;-77
2023/04/02 07:52:32;;;;;;;;;11.00;10.50;;;;;9.84;73.54;101093.13;5095641;27;47272;-74
2023/04/02 07:54:58;;;;;;;;;10.25;9.75;;;;;9.74;73.32;101068.44;5095369;27;45760;-73
2023/04/02 07:57:23;;;;;;;;;12.75;10.00;;;;;9.88;73.62;101088.56;5094965;27;45580;-76
2023/04/02 07:59:49;;;;;;;;;9.25;8.00;;;;;9.91;73.39;101104.06;5096436;27;45634;-77
2023/04/02 08:02:20;;;;;;;;;9.75;9.00;;;;;9.90;73.54;101100.63;5095568;27;47132;-75
2023/04/02 08:04:46;;;;;;;;;11.75;11.00;;;;;9.87;73.51;101100.81;5096085;27;45801;-74
2023/04/02 08:07:11;;;;;;;;;15.00;11.50;;;;;9.84;73.75;101115.84;5096001;27;45547;-77
2023/04/02 08:09:37;;;;;;;;;11.25;10.00;;;;;9.80;73.39;101088.19;5095938;27;46180;-75
2023/04/02 08:12:02;;;;;;;;;9.00;8.00;;;;;9.75;73.54;101085.00;5096099;27;46774;-79
2023/04/02 08:18:29;;;;;;;;;12.25;8.50;;;;;9.86;73.65;101104.34;5095195;27;45647;-75
2023/04/02 08:20:56;;;;;;;;;11.00;8.00;;;;;9.86;73.66;101116.59;5096063;27;46246;-77
2023/04/02 08:23:22;;;;;;;;;11.50;11.00;;;;;9.86;73.47;101111.38;5095644;27;45675;-74
2023/04/02 08:25:48;;;;;;;;;12.00;7.75;;;;;9.77;73.68;101115.34;5096097;27;45595;-78
2023/04/02 08:28:14;;;;;;;;;11.75;9.50;;;;;9.86;73.72;101121.84;5096109;27;45649;-79
2023/04/02 08:30:40;;;;;;;;;11.00;10.00;;;;;9.83;73.93;101115.00;5095015;27;46670;-78
2023/04/02 08:33:06;;;;;;;;;11.75;8.00;;;;;9.93;73.74;101131.00;5095677;27;46208;-78
2023/04/02 08:35:31;;;;;;;;;10.00;8.50;;;;;9.88;73.63;101127.81;5095545;27;45697;-79
2023/04/02 08:37:57;;;;;;;;;10.25;8.50;;;;;9.98;73.59;101148.13;5095718;27;45788;-78
2023/04/02 08:40:34;;;;;;;;;11.50;11.00;;;;;9.97;73.21;101143.81;5095535;27;47269;-79
2023/04/02 08:43:10;;;;;;;;;16.25;14.50;;;;;9.92;73.40;101143.25;5095005;27;47135;-80
2023/04/02 08:45:50;;;;;;;;;13.75;11.75;;;;;9.94;73.36;101137.91;5095328;27;45796;-77
2023/04/02 08:48:16;;;;;;;;;14.00;12.75;;;;;9.96;73.31;101138.66;5095565;27;45973;-78
2023/04/02 08:50:43;;;;;;;;;12.75;12.25;;;;;9.99;73.26;101156.78;5095618;27;46240;-79
2023/04/02 08:53:30;;;;;;;;;21.75;16.75;;;;;9.97;72.68;101179.63;5095670;27;46253;-79
2023/04/02 08:56:04;;;;;;;;;16.50;13.75;;;;;9.94;72.77;101162.31;5095077;27;45627;-78
2023/04/02 08:58:41;;;;;;;;;16.75;13.00;;;;;9.80;73.10;101146.59;5095994;27;45705;-79
2023/04/02 09:01:34;;;;;;;;;11.75;11.50;;;;;9.94;72.40;101192.88;5095367;27;45714;-78
2023/04/02 09:04:02;;;;;;;;;11.00;10.75;;;;;9.91;72.61;101177.34;5094380;27;46173;-80
2023/04/02 09:06:28;;;;;;;;;12.50;12.00;;;;;9.92;71.95;101203.44;5094624;27;45731;-79
2023/04/02 09:08:55;;;;;;;;;13.25;11.50;;;;;9.91;72.10;101183.44;5094452;27;45767;-76
2023/04/02 09:11:31;;;;;;;;;16.75;12.00;;;;;9.93;72.23;101185.97;5094990;27;45548;-79
2023/04/02 09:14:01;;;;;;;;;10.00;9.50;;;;;9.95;72.52;101186.69;5094895;27;45580;-76
2023/04/02 09:16:50;;;;;;;;;12.50;10.00;;;;;9.93;72.01;101201.69;5094405;27;45608;-77
2023/04/02 09:19:20;;;;;;;;;11.25;9.50;;;;;9.98;71.76;101205.72;5085463;27;45934;-77
2023/04/02 09:22:05;;;;;;;;;9.50;9.00;;;;;9.91;72.26;101204.38;5094491;27;46622;-78
2023/04/02 09:24:31;;;;;;;;;14.75;13.75;;;;;9.93;72.24;101192.03;5094439;27;47023;-77
2023/04/02 09:26:56;;;;;;;;;11.25;11.00;;;;;9.98;71.87;101218.78;5095207;27;45652;-79
2023/04/02 09:29:26;;;;;;;;;10.75;8.50;;;;;10.03;71.85;101205.44;5094690;27;45560;-78
2023/04/02 09:32:14;;;;;;;;;12.75;12.00;;;;;10.04;71.91;101228.88;5094378;27;46782;-77
2023/04/02 09:34:40;;;;;;;;;8.25;7.75;;;;;10.04;71.49;101231.50;5110718;27;47191;-79
2023/04/02 09:37:06;;;;;;;;;11.50;10.50;;;;;10.05;71.51;101263.75;5093448;27;45632;-77
2023/04/02 09:39:31;;;;;;;;;12.50;11.00;;;;;9.93;71.58;101220.81;5095051;27;45624;-78
2023/04/02 09:41:57;;;;;;;;;12.75;10.25;;;;;9.96;71.03;101214.56;5094304;27;47442;-76
2023/04/02 09:44:29;;;;;;;;;12.75;11.25;;;;;10.04;71.42;101238.53;5094330;27;46539;-77
2023/04/02 09:47:02;;;;;;;;;12.75;11.00;;;;;10.08;71.72;101237.41;5094752;27;45640;-79
2023/04/02 09:49:32;;;;;;;;;10.50;9.75;;;;;10.08;71.49;101232.19;5094656;27;45943;-78
2023/04/02 09:52:10;;;;;;;;;14.00;12.00;;;;;10.15;71.09;101249.19;5094275;27;47254;-78
2023/04/02 09:54:42;;;;;;;;;12.75;11.25;;;;;10.08;71.36;101233.03;5093955;27;46705;-76
2023/04/02 09:57:17;;;;;;;;;16.50;12.75;;;;;10.10;71.14;101239.00;5094347;27;45794;-76
2023/04/02 09:59:42;;;;;;;;;16.00;11.25;;;;;10.15;71.55;101245.75;5094440;27;45612;-76
2023/04/02 10:02:23;;;;;;;;;17.00;11.50;;;;;10.23;71.34;101269.72;5094062;27;47343;-75
2023/04/02 10:04:49;;;;;;;;;13.25;11.50;;;;;10.25;71.29;101252.16;5094347;27;45975;-76
2023/04/02 10:07:38;;;;;;;;;16.25;11.50;;;;;10.30;71.16;101253.56;5093413;27;45532;-77
2023/04/02 10:10:29;;;;;;;;;14.75;13.25;;;;;10.35;70.94;101258.53;5092844;27;45594;-81
2023/04/02 10:13:20;;;;;;;;;7.25;6.00;;;;;10.37;70.81;101277.59;5095316;27;45673;-81
2023/04/02 10:15:57;;;;;;;;;13.00;12.75;;;;;10.35;70.91;101272.47;5094287;27;46143;-82
2023/04/02 10:18:37;;;;;;;;;14.50;13.50;;;;;10.29;71.00;101256.28;5110240;27;47054;-77
2023/04/02 10:21:05;;;;;;;;;12.25;10.75;;;;;10.35;70.41;101282.94;5098362;27;45585;-79
2023/04/02 10:23:31;;;;;;;;;13.00;9.25;;;;;9.98;70.17;101224.03;5097926;27;46473;-79
2023/04/02 10:26:24;;;;;;;;;11.25;9.75;;;;;10.31;69.59;101331.19;5097436;27;45746;-87
2023/04/02 10:32:20;;;;;;;;;9.75;8.00;;;;;10.28;70.01;101283.41;5034655;28;45658;-79
2023/04/02 10:34:51;;;;;;;;;9.50;8.25;;;;;10.30;69.92;101279.75;5034421;28;46341;-74
2023/04/02 10:37:44;;;;;;;;;11.75;10.00;;;;;10.34;69.72;101304.84;5034541;28;46317;-77
2023/04/02 10:40:25;;;;;;;;;9.50;9.25;;;;;10.36;69.97;101299.50;5034419;28;45941;-75
2023/04/02 10:43:24;;;;;;;;;15.00;9.25;;;;;10.37;69.78;101327.38;5034421;28;45789;-76
2023/04/02 10:49:20;;;;;;;;;11.50;11.00;;;;;10.36;69.61;101307.38;5033932;28;45747;-78
2023/04/02 10:52:17;;;;;;;;;13.00;11.00;;;;;10.37;69.52;101317.72;5034203;28;45885;-76
2023/04/02 10:54:45;;;;;;;;;15.00;11.75;;;;;10.38;69.30;101311.56;5028668;28;45677;-76
2023/04/02 10:57:33;;;;;;;;;11.25;10.00;;;;;10.40;69.57;101308.88;5033952;28;47400;-74
2023/04/02 11:00:29;;;;;;;;;11.00;10.00;;;;;10.43;69.17;101345.34;5034064;28;46026;-74
2023/04/02 11:03:02;;;;;;;;;18.75;13.00;;;;;10.46;69.62;101324.22;4954607;28;45756;-78
2023/04/02 11:05:42;;;;;;;;;13.50;12.50;;;;;10.42;69.42;101315.69;4960391;28;45813;-76
2023/04/02 11:08:23;;;;;;;;;17.25;14.75;;;;;10.43;69.39;101313.91;4974274;28;46642;-76
2023/04/02 11:11:11;;;;;;;;;15.00;12.75;;;;;10.39;69.75;101317.66;4977214;28;46056;-80
2023/04/02 11:13:49;;;;;;;;;17.25;15.00;;;;;10.46;69.74;101335.56;4977016;28;45737;-80
2023/04/02 11:16:15;;;;;;;;;20.50;18.00;;;;;10.40;69.44;101320.19;4975415;28;45644;-85
2023/04/02 11:18:43;;;;;;;;;18.25;17.00;;;;;10.46;69.40;101330.31;4975520;28;46695;-81
2023/04/02 11:21:38;;;;;;;;;18.00;16.00;;;;;10.48;69.43;101359.00;4975290;28;46636;-83
2023/04/02 11:24:05;;;;;;;;;18.00;15.25;;;;;10.47;69.34;101336.41;4974973;28;45618;-86
2023/04/02 11:26:45;;;;;;;;;14.75;13.75;;;;;10.30;69.43;101308.56;4959302;28;45752;-84
2023/04/02 11:29:21;;;;;;;;;17.25;13.75;;;;;10.54;69.16;101363.91;4994673;28;45616;-85
2023/04/02 11:31:50;;;;;;;;;17.25;15.50;;;;;10.32;69.04;101311.06;4990498;28;48704;-83
2023/04/02 11:34:41;;;;;;;;;18.50;16.00;;;;;10.52;68.90;101347.44;4974335;28;45948;-82
2023/04/02 11:37:10;;;;;;;;;17.25;13.75;;;;;10.53;68.84;101362.22;4975825;28;45545;-87
2023/04/02 11:39:52;;;;;;;;;16.25;13.00;;;;;10.52;69.01;101363.16;5037839;28;45772;-81
2023/04/02 11:42:17;;;;;;;;;21.50;17.50;;;;;10.52;69.17;101355.31;5077854;27;45445;-83
2023/04/02 11:44:43;;;;;;;;;18.75;16.75;;;;;10.46;69.06;101351.28;5076285;28;45660;-82
2023/04/02 11:47:15;;;;;;;;;14.25;11.00;;;;;10.53;68.64;101368.28;5077242;28;45510;-80
2023/04/02 11:50:00;;;;;;;;;22.00;18.00;;;;;10.50;68.92;101373.72;5076587;28;48645;-82
2023/04/02 11:52:34;;;;;;;;;17.75;16.75;;;;;10.50;68.65;101386.81;5087499;28;45560;-83
2023/04/02 11:55:19;;;;;;;;;16.75;13.25;;;;;10.29;68.74;101355.78;5084357;28;45797;-79
2023/04/02 11:58:04;;;;;;;;;15.75;13.75;;;;;10.45;68.79;101381.00;5082448;28;45613;-81
2023/04/02 12:04:35;;;;;;;;;20.50;16.00;;;;;10.44;68.77;101389.78;5081150;28;45698;-86
2023/04/02 12:07:16;;;;;;;;;16.25;16.00;;;;;10.45;67.79;101383.63;5087275;28;45924;-84
2023/04/02 12:09:55;;;;;;;;;13.25;12.00;;;;;10.43;68.58;101392.50;5081310;28;46025;-86
2023/04/02 12:12:23;;;;;;;;;14.00;13.25;;;;;10.46;68.63;101439.50;5080928;28;47587;-86
2023/04/02 12:14:54;;;;;;;;;10.50;8.00;;;;;10.46;68.47;101392.34;5077639;28;47233;-86
2023/04/02 12:21:25;;;;;;;;;15.00;13.50;;;;;10.45;68.59;101399.34;5099387;27;45754;-85
2023/04/02 12:23:53;;;;;;;;;11.50;10.75;;;;;10.48;68.57;101406.16;5098547;27;46302;-79
2023/04/02 12:26:36;;;;;;;;;22.25;17.75;;;;;10.48;68.71;101408.78;5098957;27;45995;-79
2023/04/02 12:29:20;;;;;;;;;16.00;13.75;;;;;10.49;68.98;101420.97;5095621;27;45954;-78
2023/04/02 12:35:25;;;;;;;;;16.75;13.75;;;;;10.53;68.89;101415.44;5097428;27;45963;-82
2023/04/02 12:37:54;;;;;;;;;14.00;12.00;;;;;10.53;68.55;101422.47;5099321;27;46907;-82
2023/04/02 12:40:20;;;;;;;;;17.50;11.25;;;;;10.43;68.66;101406.44;5100456;27;45530;-88
2023/04/02 12:42:45;;;;;;;;;14.50;13.50;;;;;10.53;68.51;101425.94;5101349;27;45495;-80
2023/04/02 12:45:21;;;;;;;;;15.75;14.75;;;;;10.48;68.48;101416.66;5096708;27;46590;-84
2023/04/02 12:51:09;;;;;;;;;13.50;13.00;;;;;10.49;68.87;101408.72;5095405;27;45836;-85